createdAt,value
2023-04-25T00:01:25.181Z,99047.44
2023-04-25T00:03:53.862Z,99042.69
2023-04-25T00:06:22.215Z,99047.16
2023-04-25T00:08:50.219Z,99039.66
2023-04-25T00:11:18.168Z,99025.09
2023-04-25T00:13:47.623Z,99036.19
2023-04-25T00:16:16.577Z,99023.59
2023-04-25T00:18:44.692Z,99021.38
2023-04-25T00:21:12.657Z,99017.91
2023-04-25T00:23:40.601Z,99005.06
2023-04-25T00:26:08.706Z,99004.25
2023-04-25T00:28:36.644Z,99004.59
2023-04-25T00:31:06.007Z,98999.19
2023-04-25T00:33:33.977Z,99011.81
2023-04-25T00:36:01.952Z,98993.09
2023-04-25T00:38:29.893Z,98987.50
2023-04-25T00:40:58.659Z,98971.38
2023-04-25T00:43:27.583Z,98971.81
2023-04-25T00:45:56.891Z,98968.09
2023-04-25T00:48:26.233Z,98969.72
2023-04-25T00:50:55.228Z,98973.03
2023-04-25T00:53:23.295Z,98979.94
2023-04-25T00:55:51.993Z,98975.56
2023-04-25T00:58:19.996Z,98978.69
2023-04-25T01:00:48.229Z,98972.25
2023-04-25T01:03:17.389Z,98968.59
2023-04-25T01:05:46.912Z,98965.63
2023-04-25T01:08:14.925Z,98968.16
2023-04-25T01:10:42.869Z,98960.28
2023-04-25T01:13:10.828Z,98956.53
2023-04-25T01:15:38.811Z,98951.97
2023-04-25T01:18:07.339Z,98950.31
2023-04-25T01:20:35.684Z,98942.84
2023-04-25T01:23:05.048Z,98932.28
2023-04-25T01:25:33.074Z,98937.69
2023-04-25T01:28:01.133Z,98931.41
2023-04-25T01:30:29.448Z,98932.88
2023-04-25T01:32:57.655Z,98914.59
2023-04-25T01:35:26.051Z,98918.31
2023-04-25T01:37:53.963Z,98911.28
2023-04-25T01:40:23.365Z,98901.97
2023-04-25T01:42:51.302Z,98899.88
2023-04-25T01:45:19.267Z,98889.66
2023-04-25T01:47:49.983Z,98885.09
2023-04-25T01:50:18.495Z,98884.22
2023-04-25T01:52:46.472Z,98878.75
2023-04-25T01:55:14.441Z,98876.81
2023-04-25T01:57:43.730Z,98866.41
2023-04-25T02:00:13.125Z,98862.88
2023-04-25T02:02:41.276Z,98873.69
2023-04-25T02:05:09.823Z,98858.31
2023-04-25T02:07:37.823Z,98850.59
2023-04-25T02:10:06.357Z,98849.09
2023-04-25T02:12:34.352Z,98844.72
2023-04-25T02:15:03.678Z,98842.94
2023-04-25T02:17:32.784Z,98836.31
2023-04-25T02:20:00.827Z,98839.28
2023-04-25T02:22:31.266Z,98831.63
2023-04-25T02:24:59.209Z,98826.41
2023-04-25T02:27:27.217Z,98835.13
2023-04-25T02:29:55.216Z,98826.53
2023-04-25T02:32:24.554Z,98828.06
2023-04-25T02:34:52.494Z,98830.31
2023-04-25T02:37:20.677Z,98830.69
2023-04-25T02:39:48.698Z,98835.66
2023-04-25T02:42:16.658Z,98829.72
2023-04-25T02:44:44.669Z,98827.09
2023-04-25T02:47:12.635Z,98821.75
2023-04-25T02:49:42.006Z,98825.00
2023-04-25T02:52:10.046Z,98826.09
2023-04-25T02:54:37.966Z,98824.31
2023-04-25T02:57:07.248Z,98835.78
2023-04-25T02:59:35.337Z,98830.16
2023-04-25T03:02:03.330Z,98834.66
2023-04-25T03:04:31.307Z,98833.03
2023-04-25T03:07:00.666Z,98830.91
2023-04-25T03:09:28.711Z,98834.66
2023-04-25T03:11:56.629Z,98842.59
2023-04-25T03:14:24.526Z,98847.41
2023-04-25T03:16:52.563Z,98848.91
2023-04-25T03:19:21.423Z,98842.44
2023-04-25T03:21:49.360Z,98847.69
2023-04-25T03:24:18.690Z,98858.09
2023-04-25T03:26:46.641Z,98857.25
2023-04-25T03:29:14.562Z,98868.03
2023-04-25T03:31:42.497Z,98857.84
2023-04-25T03:34:10.568Z,98856.84
2023-04-25T03:36:40.470Z,98859.72
2023-04-25T03:39:09.893Z,98858.81
2023-04-25T03:41:39.237Z,98850.09
2023-04-25T03:44:07.166Z,98853.72
2023-04-25T03:46:35.115Z,98854.31
2023-04-25T03:49:03.095Z,98849.22
2023-04-25T03:51:32.064Z,98852.06
2023-04-25T03:54:00.004Z,98849.53
2023-04-25T03:56:28.011Z,98851.66
2023-04-25T03:58:57.374Z,98848.06
2023-04-25T04:01:25.305Z,98850.94
2023-04-25T04:03:53.682Z,98847.16
2023-04-25T04:06:22.232Z,98844.91
2023-04-25T04:08:50.259Z,98846.69
2023-04-25T04:11:18.238Z,98846.09
2023-04-25T04:13:46.337Z,98842.56
2023-04-25T04:16:16.001Z,98840.63
2023-04-25T04:18:43.919Z,98847.09
2023-04-25T04:21:11.834Z,98849.56
2023-04-25T04:23:40.010Z,98835.63
2023-04-25T04:26:08.290Z,98837.34
2023-04-25T04:28:36.802Z,98833.69
2023-04-25T04:31:05.134Z,98823.84
2023-04-25T04:33:34.484Z,98827.44
2023-04-25T04:36:03.734Z,98827.22
2023-04-25T04:38:32.082Z,98830.38
2023-04-25T04:41:00.017Z,98830.38
2023-04-25T04:43:29.642Z,98836.84
2023-04-25T04:45:58.242Z,98842.47
2023-04-25T04:48:26.315Z,98838.72
2023-04-25T04:50:55.830Z,98835.78
2023-04-25T04:53:23.791Z,98831.63
2023-04-25T04:55:51.766Z,98831.78
2023-04-25T04:58:19.752Z,98833.09
2023-04-25T05:00:47.987Z,98837.13
2023-04-25T05:03:16.291Z,98828.03
2023-04-25T05:05:44.312Z,98828.38
2023-04-25T05:08:13.637Z,98833.22
2023-04-25T05:10:42.680Z,98829.22
2023-04-25T05:13:10.613Z,98831.00
2023-04-25T05:15:38.555Z,98821.22
2023-04-25T05:18:06.634Z,98824.41
2023-04-25T05:20:34.633Z,98829.34
2023-04-25T05:23:02.602Z,98828.34
2023-04-25T05:25:31.948Z,98831.28
2023-04-25T05:27:59.904Z,98826.19
2023-04-25T05:30:27.849Z,98822.19
2023-04-25T05:32:55.973Z,98829.81
2023-04-25T05:35:23.927Z,98834.97
2023-04-25T05:37:51.912Z,98827.03
2023-04-25T05:40:19.833Z,98824.75
2023-04-25T05:42:49.198Z,98824.81
2023-04-25T05:45:18.610Z,98822.06
2023-04-25T05:47:46.640Z,98827.59
2023-04-25T05:50:14.620Z,98817.81
2023-04-25T05:52:42.552Z,98814.91
2023-04-25T05:55:11.232Z,98815.66
2023-04-25T05:57:42.412Z,98819.09
2023-04-25T06:00:14.035Z,98810.38
2023-04-25T06:02:42.238Z,98812.56
2023-04-25T06:05:11.316Z,98818.13
2023-04-25T06:07:39.466Z,98820.84
2023-04-25T06:10:09.065Z,98821.78
2023-04-25T06:12:37.291Z,98833.44
2023-04-25T06:15:16.535Z,98837.53
2023-04-25T06:17:55.187Z,98828.22
2023-04-25T06:20:25.244Z,98834.00
2023-04-25T06:22:53.697Z,98834.78
2023-04-25T06:25:22.112Z,98826.66
2023-04-25T06:27:50.199Z,98822.53
2023-04-25T06:30:19.505Z,98822.88
2023-04-25T06:32:47.472Z,98822.38
2023-04-25T06:35:17.045Z,98821.13
2023-04-25T06:37:44.980Z,98821.38
2023-04-25T06:40:13.098Z,98819.19
2023-04-25T06:42:41.039Z,98825.78
2023-04-25T06:45:10.082Z,98814.84
2023-04-25T06:47:38.228Z,98810.38
2023-04-25T06:50:07.517Z,98820.13
2023-04-25T06:52:36.882Z,98822.38
2023-04-25T06:55:06.039Z,98823.47
2023-04-25T06:57:33.977Z,98816.28
2023-04-25T07:00:02.585Z,98817.63
2023-04-25T07:02:30.813Z,98819.31
2023-04-25T07:05:00.898Z,98822.13
2023-04-25T07:07:28.861Z,98817.41
2023-04-25T07:09:58.211Z,98826.03
2023-04-25T07:12:26.185Z,98822.00
2023-04-25T07:14:54.105Z,98827.47
2023-04-25T07:17:22.062Z,98823.59
2023-04-25T07:19:49.958Z,98836.69
2023-04-25T07:22:17.954Z,98828.75
2023-04-25T07:24:49.635Z,98833.34
2023-04-25T07:27:19.166Z,98829.84
2023-04-25T07:29:47.439Z,98830.75
2023-04-25T07:32:15.416Z,98823.09
2023-04-25T07:34:43.458Z,98822.47
2023-04-25T07:37:11.504Z,98829.63
2023-04-25T07:39:39.457Z,98830.19
2023-04-25T07:42:09.015Z,98828.78
2023-04-25T07:44:39.765Z,98827.22
2023-04-25T07:47:09.108Z,98825.19
2023-04-25T07:49:37.066Z,98831.69
2023-04-25T07:52:05.483Z,98827.66
2023-04-25T07:54:33.491Z,98832.09
2023-04-25T07:57:01.521Z,98832.63
2023-04-25T07:59:30.329Z,98832.25
2023-04-25T08:01:59.785Z,98830.38
2023-04-25T08:04:27.825Z,98828.66
2023-04-25T08:06:55.935Z,98826.16
2023-04-25T08:09:23.936Z,98827.75
2023-04-25T08:11:51.913Z,98827.88
2023-04-25T08:14:19.806Z,98824.94
2023-04-25T08:16:47.733Z,98825.78
2023-04-25T08:19:17.075Z,98829.44
2023-04-25T08:21:45.248Z,98822.88
2023-04-25T08:24:13.188Z,98825.09
2023-04-25T08:26:42.266Z,98831.63
2023-04-25T08:29:10.214Z,98822.25
2023-04-25T08:31:38.917Z,98820.09
2023-04-25T08:34:06.987Z,98822.19
2023-04-25T08:36:39.929Z,98815.09
2023-04-25T08:39:08.286Z,98821.56
2023-04-25T08:41:36.513Z,98820.19
2023-04-25T08:44:04.606Z,98813.25
2023-04-25T08:46:33.181Z,98815.91
2023-04-25T08:49:03.037Z,98820.25
2023-04-25T08:51:33.172Z,98815.13
2023-04-25T08:54:12.872Z,98804.84
2023-04-25T08:56:48.010Z,98813.38
2023-04-25T08:59:16.024Z,98812.03
2023-04-25T09:01:43.950Z,98811.00
2023-04-25T09:04:12.001Z,98806.88
2023-04-25T09:06:40.028Z,98812.59
2023-04-25T09:09:11.805Z,98811.41
2023-04-25T09:11:39.778Z,98811.63
2023-04-25T09:14:17.210Z,98809.63
2023-04-25T09:17:05.871Z,98807.41
2023-04-25T09:19:40.470Z,98808.88
2023-04-25T09:22:09.301Z,98804.16
2023-04-25T09:24:40.097Z,98810.19
2023-04-25T09:27:08.428Z,98810.03
2023-04-25T09:29:37.261Z,98805.13
2023-04-25T09:32:21.280Z,98809.19
2023-04-25T09:34:52.807Z,98811.56
2023-04-25T09:37:21.763Z,98808.91
2023-04-25T09:39:51.583Z,98805.44
2023-04-25T09:42:19.763Z,98785.22
2023-04-25T09:44:47.967Z,98807.59
2023-04-25T09:47:17.531Z,98803.75
2023-04-25T09:49:45.664Z,98809.22
2023-04-25T09:52:16.433Z,98814.91
2023-04-25T09:54:44.399Z,98830.09
2023-04-25T09:57:17.515Z,98834.88
2023-04-25T09:59:46.639Z,98842.84
2023-04-25T10:02:15.397Z,98848.25
2023-04-25T10:04:43.477Z,98857.41
2023-04-25T10:07:11.560Z,98851.84
2023-04-25T10:09:40.566Z,98853.91
2023-04-25T10:12:09.075Z,98856.25
2023-04-25T10:14:38.418Z,98856.56
2023-04-25T10:17:06.315Z,98858.09
2023-04-25T10:19:34.243Z,98859.91
2023-04-25T10:22:08.146Z,98867.56
2023-04-25T10:24:36.472Z,98866.44
2023-04-25T10:27:04.455Z,98874.81
2023-04-25T10:29:32.623Z,98862.38
2023-04-25T10:32:02.022Z,98866.63
2023-04-25T10:34:40.980Z,98856.69
2023-04-25T10:37:11.164Z,98862.09
2023-04-25T10:39:40.796Z,98856.44
2023-04-25T10:42:09.150Z,98851.75
2023-04-25T10:44:37.130Z,98847.38
2023-04-25T10:47:07.574Z,98859.28
2023-04-25T10:49:36.318Z,98851.75
2023-04-25T10:52:18.043Z,98847.44
2023-04-25T10:54:48.808Z,98835.47
2023-04-25T10:57:30.817Z,98818.97
2023-04-25T11:00:01.982Z,98820.88
2023-04-25T11:02:31.843Z,98820.50
2023-04-25T11:04:59.886Z,98837.63
2023-04-25T11:07:32.893Z,98840.94
2023-04-25T11:10:01.071Z,98845.66
2023-04-25T11:12:29.027Z,98835.41
2023-04-25T11:15:02.200Z,98837.22
2023-04-25T11:17:32.163Z,98838.19
2023-04-25T11:20:00.284Z,98827.31
2023-04-25T11:22:28.823Z,98821.97
2023-04-25T11:24:56.778Z,98834.25
2023-04-25T11:27:25.841Z,98839.84
2023-04-25T11:29:53.796Z,98834.09
2023-04-25T11:32:23.287Z,98822.59
2023-04-25T11:34:54.722Z,98831.00
2023-04-25T11:37:22.648Z,98820.38
2023-04-25T11:39:50.558Z,98813.34
2023-04-25T11:42:18.521Z,98804.97
2023-04-25T11:44:46.471Z,98809.00
2023-04-25T11:47:14.425Z,98797.59
2023-04-25T11:49:42.594Z,98792.06
2023-04-25T11:52:12.091Z,98786.41
2023-04-25T11:54:40.224Z,98772.00
2023-04-25T11:57:08.183Z,98767.41
2023-04-25T11:59:36.101Z,98756.28
2023-04-25T12:02:04.056Z,98766.97
2023-04-25T12:04:32.892Z,98763.50
2023-04-25T12:07:02.666Z,98751.50
2023-04-25T12:09:32.801Z,98753.59
2023-04-25T12:12:03.819Z,98751.91
2023-04-25T12:14:33.403Z,98751.47
2023-04-25T12:17:01.990Z,98751.69
2023-04-25T12:19:34.492Z,98752.72
2023-04-25T12:22:04.188Z,98750.81
2023-04-25T12:24:38.690Z,98738.31
2023-04-25T12:27:09.393Z,98738.22
2023-04-25T12:29:49.269Z,98732.19
2023-04-25T12:32:18.167Z,98723.81
2023-04-25T12:34:46.180Z,98724.53
2023-04-25T12:37:14.244Z,98720.03
2023-04-25T12:39:43.558Z,98717.50
2023-04-25T12:42:13.040Z,98714.88
2023-04-25T12:44:41.493Z,98716.81
2023-04-25T12:47:09.532Z,98731.16
2023-04-25T12:49:37.576Z,98736.34
2023-04-25T12:52:05.568Z,98736.66
2023-04-25T12:54:33.576Z,98735.00
2023-04-25T12:57:04.142Z,98737.19
2023-04-25T12:59:32.278Z,98734.34
2023-04-25T13:02:00.411Z,98742.47
2023-04-25T13:04:28.789Z,98743.50
2023-04-25T13:06:57.056Z,98747.78
2023-04-25T13:09:24.960Z,98746.59
2023-04-25T13:11:54.881Z,98749.72
2023-04-25T13:14:26.492Z,98755.63
2023-04-25T13:16:55.344Z,98755.50
2023-04-25T13:19:23.567Z,98767.31
2023-04-25T13:21:51.698Z,98773.59
2023-04-25T13:24:19.819Z,98768.94
2023-04-25T13:26:47.768Z,98771.41
2023-04-25T13:29:15.760Z,98764.16
2023-04-25T13:31:45.101Z,98772.03
2023-04-25T13:34:13.659Z,98763.25
2023-04-25T13:36:41.674Z,98768.91
2023-04-25T13:39:09.701Z,98773.97
2023-04-25T13:41:37.875Z,98761.81
2023-04-25T13:44:06.013Z,98759.03
2023-04-25T13:46:45.738Z,98757.09
2023-04-25T13:49:16.793Z,98744.53
2023-04-25T13:51:44.855Z,98736.22
2023-04-25T13:54:12.808Z,98742.09
2023-04-25T13:56:43.271Z,98754.28
2023-04-25T13:59:11.490Z,98756.91
2023-04-25T14:01:39.468Z,98753.41
2023-04-25T14:04:07.523Z,98750.06
2023-04-25T14:06:36.974Z,98740.09
2023-04-25T14:09:05.786Z,98738.28
2023-04-25T14:11:33.846Z,98739.06
2023-04-25T14:14:01.783Z,98740.00
2023-04-25T14:16:29.893Z,98730.09
2023-04-25T14:18:58.906Z,98735.81
2023-04-25T14:21:28.017Z,98745.88
2023-04-25T14:23:57.328Z,98752.28
2023-04-25T14:26:25.328Z,98763.16
2023-04-25T14:28:53.566Z,98770.56
2023-04-25T14:31:22.127Z,98757.47
2023-04-25T14:33:50.306Z,98762.16
2023-04-25T14:36:18.364Z,98765.47
2023-04-25T14:38:46.711Z,98766.03
2023-04-25T14:41:16.621Z,98776.50
2023-04-25T14:43:46.043Z,98816.28
2023-04-25T14:46:14.135Z,98856.81
2023-04-25T14:48:42.248Z,98840.56
2023-04-25T14:51:10.339Z,98848.31
2023-04-25T14:53:38.318Z,98850.66
2023-04-25T14:56:06.986Z,98850.31
2023-04-25T14:58:36.299Z,98867.13
2023-04-25T15:01:04.262Z,98865.63
2023-04-25T15:03:33.150Z,98866.38
2023-04-25T15:06:01.392Z,98866.66
2023-04-25T15:08:29.314Z,98861.53
2023-04-25T15:10:57.317Z,98866.59
2023-04-25T15:13:25.822Z,98854.81
2023-04-25T15:15:55.313Z,98845.84
2023-04-25T15:18:24.712Z,98849.94
2023-04-25T15:20:52.914Z,98849.13
2023-04-25T15:23:20.980Z,98841.63
2023-04-25T15:25:49.335Z,98835.41
2023-04-25T15:28:17.547Z,98837.13
2023-04-25T15:30:45.998Z,98823.03
2023-04-25T15:33:16.117Z,98822.59
2023-04-25T15:35:44.181Z,98821.25
2023-04-25T15:38:12.423Z,98844.69
2023-04-25T15:40:40.397Z,98833.19
2023-04-25T15:43:11.538Z,98829.22
2023-04-25T15:45:39.497Z,98839.63
2023-04-25T15:48:08.114Z,98826.56
2023-04-25T15:50:37.576Z,98813.81
2023-04-25T15:53:07.260Z,98802.94
2023-04-25T15:55:36.359Z,98798.06
2023-04-25T15:58:04.339Z,98789.28
2023-04-25T16:00:34.974Z,98800.16
2023-04-25T16:03:03.238Z,98817.94
2023-04-25T16:05:31.459Z,98810.94
2023-04-25T16:08:00.853Z,98809.50
2023-04-25T16:10:28.843Z,98806.75
2023-04-25T16:12:56.796Z,98816.72
2023-04-25T16:15:24.830Z,98808.03
2023-04-25T16:17:52.838Z,98813.66
2023-04-25T16:20:20.798Z,98806.81
2023-04-25T16:22:48.783Z,98805.16
2023-04-25T16:25:18.352Z,98806.84
2023-04-25T16:27:46.288Z,98798.97
2023-04-25T16:30:15.344Z,98809.81
2023-04-25T16:32:45.259Z,98807.38
2023-04-25T16:35:13.502Z,98816.75
2023-04-25T16:37:41.457Z,98820.31
2023-04-25T16:40:10.163Z,98812.66
2023-04-25T16:42:39.547Z,98816.69
2023-04-25T16:45:09.085Z,98815.44
2023-04-25T16:47:37.377Z,98811.50
2023-04-25T16:50:06.052Z,98808.81
2023-04-25T16:52:34.013Z,98810.94
2023-04-25T16:55:01.916Z,98815.97
2023-04-25T16:57:29.825Z,98817.22
2023-04-25T16:59:59.125Z,98809.78
2023-04-25T17:02:27.297Z,98815.59
2023-04-25T17:04:55.362Z,98821.03
2023-04-25T17:07:24.659Z,98815.66
2023-04-25T17:09:52.622Z,98819.03
2023-04-25T17:12:20.765Z,98823.81
2023-04-25T17:14:48.678Z,98828.59
2023-04-25T17:17:18.854Z,98834.41
2023-04-25T17:19:47.143Z,98829.88
2023-04-25T17:22:15.068Z,98829.88
2023-04-25T17:24:43.153Z,98836.94
2023-04-25T17:27:11.882Z,98834.84
2023-04-25T17:29:39.856Z,98837.34
2023-04-25T17:32:07.901Z,98835.88
2023-04-25T17:34:37.620Z,98843.34
2023-04-25T17:37:05.974Z,98846.47
2023-04-25T17:39:34.067Z,98846.88
2023-04-25T17:42:02.501Z,98851.66
2023-04-25T17:44:30.491Z,98847.72
2023-04-25T17:46:58.469Z,98847.72
2023-04-25T17:49:26.404Z,98858.50
2023-04-25T17:51:55.866Z,98861.03
2023-04-25T17:54:24.654Z,98859.38
2023-04-25T17:56:53.016Z,98851.50
2023-04-25T17:59:21.043Z,98857.50
2023-04-25T18:01:49.016Z,98861.47
2023-04-25T18:04:17.635Z,98867.69
2023-04-25T18:06:45.595Z,98872.63
2023-04-25T18:09:18.208Z,98883.81
2023-04-25T18:11:46.473Z,98887.34
2023-04-25T18:14:15.427Z,98887.97
2023-04-25T18:16:43.470Z,98885.03
2023-04-25T18:19:15.598Z,98863.72
2023-04-25T18:21:45.381Z,98893.13
2023-04-25T18:24:17.133Z,98895.00
2023-04-25T18:26:45.081Z,98902.63
2023-04-25T18:29:29.051Z,98898.09
2023-04-25T18:32:00.848Z,98907.44
2023-04-25T18:34:28.878Z,98907.84
2023-04-25T18:36:57.021Z,98913.25
2023-04-25T18:39:27.444Z,98913.19
2023-04-25T18:42:04.368Z,98913.16
2023-04-25T18:44:36.497Z,98912.28
2023-04-25T18:47:04.607Z,98919.72
2023-04-25T18:49:32.534Z,98911.81
2023-04-25T18:52:00.924Z,98913.47
2023-04-25T18:54:30.458Z,98915.94
2023-04-25T18:57:00.985Z,98917.97
2023-04-25T18:59:28.983Z,98889.47
2023-04-25T19:01:56.943Z,98919.41
2023-04-25T19:04:25.077Z,98915.84
2023-04-25T19:06:54.259Z,98911.31
2023-04-25T19:09:22.190Z,98920.47
2023-04-25T19:11:51.479Z,98920.88
2023-04-25T19:14:19.461Z,98911.38
2023-04-25T19:16:47.518Z,98915.53
2023-04-25T19:19:15.636Z,98906.47
2023-04-25T19:21:43.549Z,98902.97
2023-04-25T19:24:11.865Z,98899.47
2023-04-25T19:26:39.981Z,98904.88
2023-04-25T19:29:10.308Z,98899.72
2023-04-25T19:31:38.766Z,98888.75
2023-04-25T19:34:07.087Z,98904.94
2023-04-25T19:36:35.136Z,98901.59
2023-04-25T19:39:07.427Z,98893.75
2023-04-25T19:41:36.382Z,98903.28
2023-04-25T19:44:04.735Z,98897.06
2023-04-25T19:46:34.198Z,98895.84
2023-04-25T19:49:03.146Z,98898.13
2023-04-25T19:51:32.056Z,98895.00
2023-04-25T19:54:00.026Z,98894.19
2023-04-25T19:56:28.090Z,98889.19
2023-04-25T19:58:58.250Z,98889.19
2023-04-25T20:01:26.396Z,98892.09
2023-04-25T20:03:56.610Z,98897.09
2023-04-25T20:06:24.810Z,98893.78
2023-04-25T20:08:54.368Z,98886.28
2023-04-25T20:11:22.566Z,98895.41
2023-04-25T20:13:50.711Z,98892.94
2023-04-25T20:16:20.540Z,98892.72
2023-04-25T20:18:48.701Z,98892.94
2023-04-25T20:21:18.237Z,98897.31
2023-04-25T20:23:46.257Z,98896.25
2023-04-25T20:26:14.183Z,98893.75
2023-04-25T20:28:42.835Z,98891.66
2023-04-25T20:31:10.998Z,98895.44
2023-04-25T20:33:39.076Z,98901.19
2023-04-25T20:36:07.763Z,98900.59
2023-04-25T20:38:37.114Z,98893.34
2023-04-25T20:41:05.055Z,98902.47
2023-04-25T20:43:33.462Z,98889.19
2023-04-25T20:46:01.493Z,98897.50
2023-04-25T20:48:29.503Z,98891.25
2023-04-25T20:50:58.614Z,98887.53
2023-04-25T20:53:26.544Z,98890.84
2023-04-25T20:55:55.849Z,98876.13
2023-04-25T20:58:23.824Z,98883.81
2023-04-25T21:00:51.874Z,98881.31
2023-04-25T21:03:20.850Z,98880.50
2023-04-25T21:05:48.941Z,98885.06
2023-04-25T21:08:16.929Z,98877.59
2023-04-25T21:10:44.880Z,98875.53
2023-04-25T21:13:14.262Z,98873.44
2023-04-25T21:15:42.234Z,98870.13
2023-04-25T21:18:10.228Z,98872.59
2023-04-25T21:20:38.298Z,98873.38
2023-04-25T21:23:06.245Z,98870.09
2023-04-25T21:25:34.211Z,98864.28
2023-04-25T21:28:02.914Z,98872.13
2023-04-25T21:30:32.756Z,98863.81
2023-04-25T21:33:00.882Z,98860.94
2023-04-25T21:35:29.187Z,98862.59
2023-04-25T21:37:57.170Z,98859.69
2023-04-25T21:40:25.159Z,98864.84
2023-04-25T21:42:53.600Z,98856.59
2023-04-25T21:45:21.826Z,98859.31
2023-04-25T21:47:51.773Z,98858.47
2023-04-25T21:50:19.964Z,98852.22
2023-04-25T21:52:48.313Z,98847.22
2023-04-25T21:55:16.563Z,98851.53
2023-04-25T21:57:44.510Z,98847.16
2023-04-25T22:00:24.769Z,98848.38
2023-04-25T22:02:55.374Z,98856.47
2023-04-25T22:05:24.059Z,98843.41
2023-04-25T22:07:52.163Z,98845.88
2023-04-25T22:10:20.210Z,98843.34
2023-04-25T22:12:50.801Z,98844.19
2023-04-25T22:15:19.366Z,98845.84
2023-04-25T22:17:47.458Z,98851.22
2023-04-25T22:20:17.186Z,98844.19
2023-04-25T22:22:45.295Z,98858.25
2023-04-25T22:25:13.257Z,98854.09
2023-04-25T22:27:43.606Z,98852.78
2023-04-25T22:30:13.105Z,98845.72
2023-04-25T22:32:41.124Z,98851.47
2023-04-25T22:35:10.486Z,98850.38
2023-04-25T22:37:40.211Z,98850.22
2023-04-25T22:40:09.349Z,98847.13
2023-04-25T22:42:40.886Z,98855.00
2023-04-25T22:45:09.767Z,98847.63
2023-04-25T22:47:37.835Z,98845.13
2023-04-25T22:50:08.689Z,98849.97
2023-04-25T22:52:36.720Z,98853.91
2023-04-25T22:55:07.032Z,98845.97
2023-04-25T22:57:38.269Z,98850.94
2023-04-25T23:00:15.252Z,98848.94
2023-04-25T23:02:45.711Z,98847.69
2023-04-25T23:05:14.327Z,98843.94
2023-04-25T23:07:42.391Z,98848.78
2023-04-25T23:10:12.222Z,98841.88
2023-04-25T23:12:40.282Z,98842.22
2023-04-25T23:15:10.125Z,98842.56
2023-04-25T23:17:38.265Z,98842.22
2023-04-25T23:20:07.823Z,98844.22
2023-04-25T23:22:36.190Z,98852.25
2023-04-25T23:25:04.211Z,98851.63
2023-04-25T23:27:33.516Z,98849.41
2023-04-25T23:30:01.508Z,98840.22
2023-04-25T23:32:29.506Z,98842.91
2023-04-25T23:34:57.709Z,98844.38
2023-04-25T23:37:25.733Z,98849.63
2023-04-25T23:39:53.699Z,98846.44
2023-04-25T23:42:21.714Z,98835.19
2023-04-25T23:44:51.039Z,98837.28
2023-04-25T23:47:19.145Z,98836.22
2023-04-25T23:49:47.082Z,98831.06
2023-04-25T23:52:14.988Z,98834.34
2023-04-25T23:54:42.968Z,98827.75
2023-04-25T23:57:12.153Z,98824.63
2023-04-25T23:59:40.194Z,98815.25
